createdAt,value
2023-10-29T00:03:17.483Z,21.30
2023-10-29T00:08:24.185Z,19.98
2023-10-29T00:13:30.846Z,21.15
2023-10-29T00:18:41.339Z,22.08
2023-10-29T00:23:47.532Z,21.15
2023-10-29T00:28:53.777Z,17.88
2023-10-29T00:34:01.780Z,21.17
2023-10-29T00:39:09.930Z,19.27
2023-10-29T00:44:16.202Z,19.03
2023-10-29T00:49:24.385Z,23.27
2023-10-29T00:54:30.985Z,21.87
2023-10-29T00:59:38.603Z,23.33
2023-10-29T01:04:46.954Z,21.42
2023-10-29T01:09:53.592Z,24.10
2023-10-29T01:15:00.059Z,24.48
2023-10-29T01:20:14.214Z,22.20
2023-10-29T01:25:21.253Z,29.70
2023-10-29T01:30:27.634Z,25.33
2023-10-29T01:35:35.310Z,30.70
2023-10-29T01:40:41.972Z,25.55
2023-10-29T01:45:48.367Z,26.83
2023-10-29T01:50:57.533Z,26.75
2023-10-29T01:56:08.801Z,27.20
2023-10-29T02:01:15.449Z,24.60
2023-10-29T02:06:23.630Z,20.77
2023-10-29T02:11:30.217Z,19.43
2023-10-29T02:16:37.010Z,22.48
2023-10-29T02:21:44.866Z,19.42
2023-10-29T02:26:52.664Z,21.80
2023-10-29T02:31:59.486Z,19.67
2023-10-29T02:37:06.152Z,24.33
2023-10-29T02:42:18.575Z,23.38
2023-10-29T02:47:25.319Z,19.48
2023-10-29T02:52:32.373Z,23.38
2023-10-29T02:57:41.917Z,29.13
2023-10-29T03:02:49.079Z,23.37
2023-10-29T03:07:55.586Z,22.38
2023-10-29T03:13:03.427Z,19.48
2023-10-29T03:18:09.847Z,18.30
2023-10-29T03:23:16.251Z,21.52
2023-10-29T03:28:25.501Z,23.60
2023-10-29T03:38:38.498Z,16.83
2023-10-29T03:43:46.485Z,24.70
2023-10-29T03:48:53.058Z,26.00
2023-10-29T03:53:59.628Z,21.50
2023-10-29T03:59:07.755Z,24.98
2023-10-29T04:04:14.026Z,24.40
2023-10-29T04:09:20.530Z,26.83
2023-10-29T04:14:28.526Z,26.05
2023-10-29T04:19:35.411Z,23.98
2023-10-29T04:24:42.428Z,27.55
2023-10-29T04:29:51.051Z,28.55
2023-10-29T04:35:01.660Z,23.65
2023-10-29T04:40:12.639Z,25.77
2023-10-29T04:45:20.854Z,25.63
2023-10-29T04:50:32.143Z,25.80
2023-10-29T04:55:38.613Z,24.83
2023-10-29T05:00:46.951Z,30.73
2023-10-29T05:05:54.711Z,25.35
2023-10-29T05:11:01.426Z,22.35
2023-10-29T05:16:10.196Z,26.65
2023-10-29T05:21:20.869Z,26.52
2023-10-29T05:26:27.732Z,25.98
2023-10-29T05:31:36.897Z,28.35
2023-10-29T05:36:44.557Z,26.25
2023-10-29T05:41:51.541Z,22.63
2023-10-29T05:46:59.738Z,28.80
2023-10-29T05:52:07.701Z,24.05
2023-10-29T05:57:17.680Z,28.73
2023-10-29T06:02:25.826Z,23.83
2023-10-29T06:07:35.623Z,27.60
2023-10-29T06:12:42.359Z,25.00
2023-10-29T06:17:50.535Z,48.85
2023-10-29T06:22:57.343Z,39.03
2023-10-29T06:28:04.231Z,38.28
2023-10-29T06:33:13.713Z,34.45
2023-10-29T06:38:20.305Z,32.33
2023-10-29T06:43:27.102Z,29.20
2023-10-29T06:48:35.233Z,28.55
2023-10-29T06:53:41.863Z,24.10
2023-10-29T06:58:48.360Z,33.20
2023-10-29T07:03:56.887Z,29.50
2023-10-29T07:09:05.471Z,30.60
2023-10-29T07:14:12.211Z,28.95
2023-10-29T07:19:20.165Z,27.02
2023-10-29T07:24:26.814Z,26.58
2023-10-29T07:29:33.492Z,25.33
2023-10-29T07:34:41.631Z,25.02
2023-10-29T07:39:48.476Z,27.00
2023-10-29T07:44:56.207Z,38.72
2023-10-29T07:50:07.882Z,25.73
2023-10-29T07:55:14.512Z,21.95
2023-10-29T08:00:21.589Z,23.52
2023-10-29T08:05:29.567Z,38.72
2023-10-29T08:10:36.558Z,26.37
2023-10-29T08:15:43.888Z,31.67
2023-10-29T08:20:52.378Z,30.92
2023-10-29T08:25:59.012Z,30.55
2023-10-29T08:31:06.254Z,31.95
2023-10-29T08:36:18.285Z,24.88
2023-10-29T08:41:24.910Z,28.50
2023-10-29T08:46:31.570Z,22.67
2023-10-29T08:51:39.826Z,21.17
2023-10-29T08:56:48.826Z,22.40
2023-10-29T09:01:57.306Z,24.50
2023-10-29T09:07:06.355Z,21.13
2023-10-29T09:12:13.192Z,19.13
2023-10-29T09:17:19.922Z,17.73
2023-10-29T09:22:28.364Z,18.05
2023-10-29T09:27:35.175Z,19.77
2023-10-29T09:32:41.918Z,26.10
2023-10-29T09:37:50.252Z,24.45
2023-10-29T09:42:58.674Z,21.27
2023-10-29T09:48:08.320Z,19.52
2023-10-29T09:53:18.648Z,9.43
2023-10-29T09:58:26.333Z,15.02
2023-10-29T10:03:33.264Z,11.77
2023-10-29T10:08:41.784Z,11.68
2023-10-29T10:13:48.641Z,11.40
2023-10-29T10:18:57.571Z,8.15
2023-10-29T10:29:22.908Z,7.78
2023-10-29T10:34:29.808Z,7.97
2023-10-29T10:39:38.401Z,8.55
2023-10-29T10:44:47.167Z,7.78
2023-10-29T10:49:57.040Z,9.82
2023-10-29T10:55:06.166Z,10.07
2023-10-29T11:00:14.777Z,7.25
2023-10-29T11:05:21.883Z,6.95
2023-10-29T11:10:30.558Z,13.13
2023-10-29T11:15:49.671Z,7.50
2023-10-29T11:20:58.354Z,8.60
2023-10-29T11:26:26.754Z,5.03
2023-10-29T11:31:33.485Z,5.22
2023-10-29T11:36:43.353Z,5.00
2023-10-29T11:41:53.973Z,3.95
2023-10-29T11:47:10.172Z,3.60
2023-10-29T11:52:16.760Z,4.78
2023-10-29T11:57:25.680Z,9.77
2023-10-29T12:02:32.647Z,6.35
2023-10-29T12:07:39.392Z,11.30
2023-10-29T12:12:55.591Z,12.18
2023-10-29T12:18:03.218Z,4.95
2023-10-29T12:23:09.800Z,4.28
2023-10-29T12:28:18.399Z,4.85
2023-10-29T12:33:27.720Z,6.25
2023-10-29T12:38:34.595Z,5.93
2023-10-29T12:43:44.743Z,5.32
2023-10-29T12:49:02.862Z,4.82
2023-10-29T12:54:14.574Z,3.60
2023-10-29T12:59:22.992Z,6.45
2023-10-29T13:04:30.778Z,3.45
2023-10-29T13:09:39.059Z,3.28
2023-10-29T13:14:48.035Z,10.85
2023-10-29T13:25:02.578Z,12.43
2023-10-29T13:30:13.249Z,5.82
2023-10-29T13:35:20.302Z,5.53
2023-10-29T13:40:27.566Z,7.82
2023-10-29T13:45:35.731Z,17.50
2023-10-29T13:50:42.331Z,10.53
2023-10-29T13:55:49.339Z,5.32
2023-10-29T14:00:58.189Z,12.65
2023-10-29T14:11:12.745Z,10.30
2023-10-29T14:16:22.059Z,16.58
2023-10-29T14:21:29.873Z,27.70
2023-10-29T14:26:38.949Z,10.63
2023-10-29T14:31:48.378Z,10.82
2023-10-29T14:36:56.741Z,7.47
2023-10-29T14:42:04.647Z,6.22
2023-10-29T14:47:13.838Z,7.23
2023-10-29T14:52:21.427Z,9.40
2023-10-29T14:57:30.138Z,5.97
2023-10-29T15:02:39.694Z,9.05
2023-10-29T15:07:46.500Z,18.10
2023-10-29T15:12:53.774Z,11.30
2023-10-29T15:18:03.127Z,7.85
2023-10-29T15:23:10.367Z,11.57
2023-10-29T15:28:18.439Z,17.55
2023-10-29T15:33:27.423Z,9.38
2023-10-29T15:38:36.164Z,10.52
2023-10-29T15:43:44.737Z,5.25
2023-10-29T15:48:54.723Z,6.00
2023-10-29T15:54:02.609Z,5.38
2023-10-29T15:59:12.162Z,8.23
2023-10-29T16:04:24.269Z,6.05
2023-10-29T16:09:33.887Z,13.50
2023-10-29T16:14:44.762Z,11.73
2023-10-29T16:19:56.133Z,12.38
2023-10-29T16:25:06.653Z,7.70
2023-10-29T16:30:19.969Z,7.78
2023-10-29T16:35:30.220Z,7.75
2023-10-29T16:40:38.994Z,7.68
2023-10-29T16:45:48.139Z,7.05
2023-10-29T16:51:03.757Z,10.15
2023-10-29T16:56:14.098Z,5.30
2023-10-29T17:01:24.801Z,8.02
2023-10-29T17:06:35.843Z,12.75
2023-10-29T17:11:49.182Z,8.68
2023-10-29T17:16:59.822Z,5.60
2023-10-29T17:22:17.615Z,6.05
2023-10-29T17:27:29.630Z,8.73
2023-10-29T17:32:39.694Z,11.27
2023-10-29T17:37:50.062Z,6.70
2023-10-29T17:43:04.150Z,10.65
2023-10-29T17:48:15.948Z,7.75
2023-10-29T17:53:26.897Z,8.98
2023-10-29T17:58:37.061Z,6.50
2023-10-29T18:03:49.173Z,6.05
2023-10-29T18:09:01.966Z,9.07
2023-10-29T18:14:12.252Z,6.47
2023-10-29T18:19:22.756Z,10.93
2023-10-29T18:24:35.945Z,14.00
2023-10-29T18:29:47.014Z,15.25
2023-10-29T18:34:57.132Z,19.00
2023-10-29T18:40:09.471Z,15.75
2023-10-29T18:45:21.599Z,14.88
2023-10-29T18:50:31.677Z,11.18
2023-10-29T18:55:44.686Z,32.60
2023-10-29T19:01:10.066Z,59.13
2023-10-29T19:06:22.389Z,42.03
2023-10-29T19:11:36.493Z,29.83
2023-10-29T19:16:46.029Z,20.88
2023-10-29T19:21:58.606Z,15.90
2023-10-29T19:27:13.084Z,18.38
2023-10-29T19:32:24.257Z,6.35
2023-10-29T19:37:36.342Z,11.60
2023-10-29T19:42:48.224Z,5.20
2023-10-29T19:48:00.474Z,8.75
2023-10-29T19:53:16.113Z,8.15
2023-10-29T19:58:32.385Z,3.92
2023-10-29T20:03:43.155Z,11.70
2023-10-29T20:09:03.801Z,7.93
2023-10-29T20:14:16.528Z,7.82
2023-10-29T20:19:29.705Z,6.15
2023-10-29T20:24:39.270Z,7.45
2023-10-29T20:29:54.615Z,15.88
2023-10-29T20:35:08.384Z,7.50
2023-10-29T20:40:19.372Z,5.68
2023-10-29T20:45:30.214Z,16.75
2023-10-29T20:50:38.999Z,9.20
2023-10-29T21:00:56.689Z,6.30
2023-10-29T21:11:14.943Z,13.35
2023-10-29T21:16:25.257Z,8.75
2023-10-29T21:21:32.542Z,9.90
2023-10-29T21:26:40.057Z,12.07
2023-10-29T21:31:49.244Z,17.17
2023-10-29T21:36:55.732Z,12.40
2023-10-29T21:42:02.901Z,11.38
2023-10-29T21:47:11.208Z,8.55
2023-10-29T21:52:18.554Z,12.68
2023-10-29T21:57:25.452Z,14.07
2023-10-29T22:02:33.536Z,11.63
2023-10-29T22:07:40.597Z,12.53
2023-10-29T22:12:50.770Z,10.90
2023-10-29T22:17:58.945Z,11.48
2023-10-29T22:23:05.880Z,9.30
2023-10-29T22:28:12.780Z,13.98
2023-10-29T22:33:21.033Z,10.82
2023-10-29T22:38:28.194Z,13.13
2023-10-29T22:43:36.383Z,8.02
2023-10-29T22:48:44.646Z,7.25
2023-10-29T22:53:53.262Z,14.50
2023-10-29T22:59:00.092Z,13.77
2023-10-29T23:04:09.093Z,15.10
2023-10-29T23:09:16.249Z,17.83
2023-10-29T23:14:22.941Z,15.75
2023-10-29T23:19:31.170Z,16.92
2023-10-29T23:24:38.056Z,6.88
2023-10-29T23:29:44.969Z,14.88
2023-10-29T23:34:53.470Z,11.98
2023-10-29T23:40:00.202Z,8.75
2023-10-29T23:45:08.003Z,4.70
2023-10-29T23:50:15.810Z,8.23
2023-10-29T23:55:22.277Z,19.55
